createdAt,value
2022-08-03T00:01:49.351Z,28.50
2022-08-03T00:04:15.924Z,28.47
2022-08-03T00:06:42.870Z,28.47
2022-08-03T00:09:10.030Z,28.46
2022-08-03T00:11:37.013Z,28.45
2022-08-03T00:14:06.773Z,28.49
2022-08-03T00:16:33.448Z,28.52
2022-08-03T00:19:00.791Z,28.60
2022-08-03T00:21:28.081Z,28.74
2022-08-03T00:23:54.700Z,28.87
2022-08-03T00:28:00.669Z,28.92
2022-08-03T00:29:11.495Z,28.98
2022-08-03T00:31:52.913Z,28.99
2022-08-03T00:34:36.209Z,28.94
2022-08-03T00:37:03.351Z,28.84
2022-08-03T00:39:29.871Z,28.70
2022-08-03T00:41:56.439Z,28.61
2022-08-03T00:44:22.923Z,28.61
2022-08-03T00:46:49.487Z,28.62
2022-08-03T00:49:16.029Z,28.57
2022-08-03T00:51:42.676Z,28.53
2022-08-03T00:54:10.225Z,28.51
2022-08-03T00:56:37.152Z,28.41
2022-08-03T00:59:03.694Z,28.35
2022-08-03T01:01:32.497Z,28.34
2022-08-03T01:04:02.502Z,28.27
2022-08-03T01:06:34.477Z,28.32
2022-08-03T01:09:03.887Z,28.30
2022-08-03T01:11:59.852Z,28.28
2022-08-03T01:14:38.833Z,28.33
2022-08-03T01:17:12.385Z,28.28
2022-08-03T01:19:50.578Z,28.19
2022-08-03T01:22:26.145Z,28.19
2022-08-03T01:25:01.697Z,28.13
2022-08-03T01:27:43.317Z,28.10
2022-08-03T01:30:12.009Z,28.17
2022-08-03T01:33:02.023Z,28.19
2022-08-03T01:35:43.602Z,28.25
2022-08-03T01:38:17.815Z,28.29
2022-08-03T01:40:45.354Z,28.24
2022-08-03T01:44:01.266Z,28.20
2022-08-03T01:46:03.656Z,28.25
2022-08-03T01:51:17.199Z,28.44
2022-08-03T01:53:44.640Z,28.61
2022-08-03T01:56:12.647Z,28.67
2022-08-03T01:58:40.893Z,28.63
2022-08-03T02:01:08.942Z,28.60
2022-08-03T02:03:38.916Z,28.70
2022-08-03T02:07:01.178Z,28.81
2022-08-03T02:09:13.987Z,28.90
2022-08-03T02:11:40.933Z,28.91
2022-08-03T02:14:09.384Z,29.01
2022-08-03T02:16:37.331Z,29.05
2022-08-03T02:19:06.468Z,28.99
2022-08-03T02:21:56.849Z,28.83
2022-08-03T02:24:22.787Z,28.66
2022-08-03T02:26:49.771Z,28.63
2022-08-03T02:29:39.994Z,28.61
2022-08-03T02:32:10.495Z,28.64
2022-08-03T02:34:37.895Z,28.68
2022-08-03T02:37:04.814Z,28.73
2022-08-03T02:39:33.454Z,28.78
2022-08-03T02:42:03.586Z,28.76
2022-08-03T02:44:32.673Z,28.75
2022-08-03T02:47:03.954Z,28.81
2022-08-03T02:49:34.921Z,28.87
2022-08-03T02:52:17.951Z,29.10
2022-08-03T02:54:46.492Z,29.23
2022-08-03T02:57:34.369Z,29.35
2022-08-03T03:00:01.657Z,29.32
2022-08-03T03:02:28.857Z,29.34
2022-08-03T03:05:53.117Z,29.39
2022-08-03T03:07:52.956Z,29.45
2022-08-03T03:10:23.151Z,29.50
2022-08-03T03:12:58.191Z,29.67
2022-08-03T03:15:26.261Z,29.71
2022-08-03T03:17:53.573Z,29.70
2022-08-03T03:20:29.342Z,29.77
2022-08-03T03:22:59.107Z,29.90
2022-08-03T03:25:25.669Z,29.94
2022-08-03T03:27:52.661Z,29.91
2022-08-03T03:30:19.315Z,29.87
2022-08-03T03:32:46.023Z,29.72
2022-08-03T03:35:14.081Z,29.52
2022-08-03T03:37:40.783Z,29.28
2022-08-03T03:40:09.031Z,29.13
2022-08-03T03:42:35.619Z,29.09
2022-08-03T03:45:06.578Z,29.12
2022-08-03T03:47:34.655Z,29.32
2022-08-03T03:50:03.943Z,29.54
2022-08-03T03:52:31.972Z,29.72
2022-08-03T03:55:01.374Z,29.83
2022-08-03T03:57:28.289Z,29.88
2022-08-03T03:59:54.886Z,29.88
2022-08-03T04:02:21.441Z,29.93
2022-08-03T04:05:06.471Z,30.01
2022-08-03T04:07:59.884Z,30.02
2022-08-03T04:10:46.391Z,29.95
2022-08-03T04:13:16.197Z,29.92
2022-08-03T04:15:43.988Z,29.87
2022-08-03T04:18:12.848Z,29.84
2022-08-03T04:20:40.987Z,29.65
2022-08-03T04:23:14.214Z,29.55
2022-08-03T04:25:43.459Z,29.60
2022-08-03T04:28:30.089Z,29.75
2022-08-03T04:30:56.980Z,29.91
2022-08-03T04:33:25.081Z,30.07
2022-08-03T04:36:02.915Z,30.26
2022-08-03T04:38:39.137Z,30.47
2022-08-03T04:41:06.807Z,30.66
2022-08-03T04:43:34.335Z,30.98
2022-08-03T04:46:01.770Z,31.32
2022-08-03T04:48:28.617Z,31.51
2022-08-03T04:50:55.338Z,31.59
2022-08-03T04:53:21.915Z,31.60
2022-08-03T04:55:49.902Z,31.54
2022-08-03T04:58:16.403Z,31.46
2022-08-03T05:00:43.215Z,31.44
2022-08-03T05:03:20.020Z,31.40
2022-08-03T05:05:51.194Z,31.29
2022-08-03T05:08:20.730Z,31.25
2022-08-03T05:10:55.372Z,31.20
2022-08-03T05:13:25.397Z,31.15
2022-08-03T05:15:53.160Z,31.14
2022-08-03T05:18:20.072Z,31.09
2022-08-03T05:20:46.622Z,30.99
2022-08-03T05:23:13.165Z,30.88
2022-08-03T05:25:39.748Z,30.77
2022-08-03T05:28:12.684Z,30.70
2022-08-03T05:30:39.185Z,30.72
2022-08-03T05:33:05.693Z,30.71
2022-08-03T05:35:56.830Z,30.68
2022-08-03T05:38:27.319Z,30.69
2022-08-03T05:40:56.731Z,30.70
2022-08-03T05:43:24.398Z,30.71
2022-08-03T05:46:12.425Z,30.71
2022-08-03T05:48:37.763Z,30.78
2022-08-03T05:51:06.624Z,30.89
2022-08-03T05:53:34.093Z,30.93
2022-08-03T05:56:02.674Z,30.95
2022-08-03T05:58:40.104Z,31.12
2022-08-03T06:01:06.726Z,31.42
2022-08-03T06:03:33.249Z,31.65
2022-08-03T06:06:00.287Z,31.85
2022-08-03T06:08:27.227Z,32.01
2022-08-03T06:10:53.715Z,32.25
2022-08-03T06:13:20.238Z,32.46
2022-08-03T06:15:46.762Z,32.53
2022-08-03T06:18:13.321Z,32.61
2022-08-03T06:20:39.886Z,32.74
2022-08-03T06:23:07.518Z,32.88
2022-08-03T06:25:34.072Z,33.05
2022-08-03T06:28:00.790Z,33.28
2022-08-03T06:30:27.425Z,33.43
2022-08-03T06:32:53.940Z,33.49
2022-08-03T06:35:20.670Z,33.62
2022-08-03T06:37:49.514Z,33.73
2022-08-03T06:40:28.524Z,33.76
2022-08-03T06:42:56.160Z,33.72
2022-08-03T06:45:22.755Z,33.64
2022-08-03T06:48:03.936Z,33.57
2022-08-03T06:50:31.154Z,33.51
2022-08-03T06:52:57.769Z,33.47
2022-08-03T06:55:24.381Z,33.41
2022-08-03T06:57:50.991Z,33.35
2022-08-03T07:00:17.866Z,33.38
2022-08-03T07:02:44.481Z,33.38
2022-08-03T07:05:11.521Z,33.28
2022-08-03T07:07:38.373Z,33.19
2022-08-03T07:10:06.162Z,33.17
2022-08-03T07:12:34.337Z,33.07
2022-08-03T07:15:03.294Z,32.91
2022-08-03T07:17:32.036Z,32.80
2022-08-03T07:19:59.433Z,32.75
2022-08-03T07:22:26.345Z,32.73
2022-08-03T07:24:53.014Z,32.72
2022-08-03T07:27:19.588Z,32.70
2022-08-03T07:29:46.124Z,32.66
2022-08-03T07:32:12.621Z,32.56
2022-08-03T07:34:39.143Z,32.18
2022-08-03T07:37:05.749Z,32.01
2022-08-03T07:39:32.502Z,32.05
2022-08-03T07:41:59.030Z,32.01
2022-08-03T07:44:25.513Z,31.82
2022-08-03T07:46:52.606Z,31.69
2022-08-03T07:49:19.300Z,31.64
2022-08-03T07:51:45.917Z,31.58
2022-08-03T07:54:12.431Z,31.46
2022-08-03T07:56:39.243Z,31.45
2022-08-03T07:59:05.888Z,31.39
2022-08-03T08:01:35.840Z,31.36
2022-08-03T08:04:02.501Z,31.30
2022-08-03T08:06:29.009Z,31.40
2022-08-03T08:08:59.423Z,31.58
2022-08-03T08:11:26.002Z,31.69
2022-08-03T08:13:52.542Z,31.71
2022-08-03T08:16:19.051Z,31.59
2022-08-03T08:18:45.590Z,31.46
2022-08-03T08:21:12.103Z,31.32
2022-08-03T08:23:43.708Z,31.27
2022-08-03T08:26:11.731Z,31.45
2022-08-03T08:28:38.341Z,31.35
2022-08-03T08:31:04.938Z,31.46
2022-08-03T08:33:54.321Z,31.48
2022-08-03T08:36:19.048Z,31.48
2022-08-03T08:38:45.599Z,31.42
2022-08-03T08:41:13.762Z,31.32
2022-08-03T08:43:40.839Z,31.18
2022-08-03T08:46:08.661Z,31.12
2022-08-03T08:48:40.623Z,31.12
2022-08-03T08:51:08.719Z,31.15
2022-08-03T08:53:38.517Z,31.06
2022-08-03T08:56:05.600Z,31.16
2022-08-03T08:58:37.812Z,31.40
2022-08-03T09:01:05.565Z,31.34
2022-08-03T09:03:34.434Z,31.42
2022-08-03T09:06:01.853Z,31.71
2022-08-03T09:08:33.298Z,31.63
2022-08-03T09:11:00.073Z,31.79
2022-08-03T09:13:26.780Z,32.12
2022-08-03T09:16:17.873Z,32.42
2022-08-03T09:18:51.021Z,32.55
2022-08-03T09:21:34.245Z,32.65
2022-08-03T09:24:04.900Z,32.67
2022-08-03T09:26:35.260Z,32.73
2022-08-03T09:29:09.322Z,32.78
2022-08-03T09:31:43.018Z,32.82
2022-08-03T09:34:12.898Z,32.89
2022-08-03T09:36:46.882Z,32.94
2022-08-03T09:39:16.394Z,33.14
2022-08-03T09:42:06.949Z,33.32
2022-08-03T09:44:49.426Z,33.43
2022-08-03T09:47:28.350Z,33.48
2022-08-03T09:50:04.100Z,33.52
2022-08-03T09:52:49.780Z,33.56
2022-08-03T09:56:33.651Z,33.71
2022-08-03T09:58:10.699Z,33.76
2022-08-03T10:00:53.013Z,33.72
2022-08-03T10:03:19.959Z,33.81
2022-08-03T10:05:46.793Z,33.99
2022-08-03T10:08:17.773Z,34.10
2022-08-03T10:10:45.478Z,34.27
2022-08-03T10:13:13.691Z,34.31
2022-08-03T10:16:21.521Z,34.34
2022-08-03T10:18:27.827Z,34.31
2022-08-03T10:20:58.055Z,34.29
2022-08-03T10:23:25.678Z,34.41
2022-08-03T10:25:55.287Z,34.68
2022-08-03T10:28:22.346Z,34.82
2022-08-03T10:30:51.386Z,34.83
2022-08-03T10:33:49.823Z,34.83
2022-08-03T10:36:07.763Z,34.73
2022-08-03T10:38:52.666Z,34.62
2022-08-03T10:41:26.447Z,34.63
2022-08-03T10:44:06.362Z,34.63
2022-08-03T10:46:33.886Z,34.58
2022-08-03T10:49:00.764Z,34.39
2022-08-03T10:51:32.026Z,34.26
2022-08-03T10:54:02.177Z,34.04
2022-08-03T10:56:50.545Z,33.86
2022-08-03T10:59:27.444Z,33.79
2022-08-03T11:01:59.799Z,33.70
2022-08-03T11:04:29.460Z,33.64
2022-08-03T11:07:15.156Z,33.60
2022-08-03T11:09:48.501Z,33.56
2022-08-03T11:12:32.596Z,33.49
2022-08-03T11:15:05.599Z,33.61
2022-08-03T11:17:33.874Z,33.75
2022-08-03T11:20:13.620Z,33.95
2022-08-03T11:22:51.065Z,34.07
2022-08-03T11:25:53.995Z,34.16
2022-08-03T11:28:38.931Z,34.20
2022-08-03T11:31:48.223Z,34.21
2022-08-03T11:34:12.067Z,34.27
2022-08-03T11:37:16.495Z,34.29
2022-08-03T11:39:45.955Z,34.36
2022-08-03T11:42:25.446Z,34.47
2022-08-03T11:44:59.518Z,34.59
2022-08-03T11:50:08.746Z,34.42
2022-08-03T11:52:37.732Z,34.31
2022-08-03T11:55:09.489Z,34.25
2022-08-03T11:59:15.393Z,34.13
2022-08-03T12:00:32.897Z,34.06
2022-08-03T12:03:22.764Z,34.07
2022-08-03T12:05:52.996Z,34.01
2022-08-03T12:08:28.458Z,33.94
2022-08-03T12:10:56.542Z,33.92
2022-08-03T12:14:10.734Z,33.93
2022-08-03T12:16:11.029Z,33.94
2022-08-03T12:18:37.785Z,33.88
2022-08-03T12:21:11.889Z,33.92
2022-08-03T12:23:38.999Z,34.01
2022-08-03T12:26:08.380Z,34.00
2022-08-03T12:28:49.601Z,34.07
2022-08-03T12:31:19.441Z,34.06
2022-08-03T12:34:00.493Z,33.97
2022-08-03T12:36:27.806Z,33.86
2022-08-03T12:39:03.623Z,33.84
2022-08-03T12:41:31.444Z,33.78
2022-08-03T12:43:58.226Z,33.85
2022-08-03T12:46:30.870Z,33.81
2022-08-03T12:49:18.741Z,33.65
2022-08-03T12:51:45.349Z,33.46
2022-08-03T12:54:24.852Z,33.30
2022-08-03T12:57:03.964Z,33.17
2022-08-03T12:59:41.160Z,33.10
2022-08-03T13:02:28.716Z,33.01
2022-08-03T13:04:55.993Z,32.96
2022-08-03T13:07:23.367Z,32.91
2022-08-03T13:09:53.801Z,32.91
2022-08-03T13:12:27.936Z,32.93
2022-08-03T13:14:59.450Z,32.90
2022-08-03T13:17:26.784Z,32.86
2022-08-03T13:19:53.859Z,32.89
2022-08-03T13:22:23.134Z,32.93
2022-08-03T13:24:51.792Z,32.93
2022-08-03T13:28:01.431Z,32.93
2022-08-03T13:30:06.949Z,32.90
2022-08-03T13:32:33.877Z,32.93
2022-08-03T13:35:02.521Z,32.99
2022-08-03T13:37:37.257Z,33.09
2022-08-03T13:40:06.169Z,33.16
2022-08-03T13:42:34.862Z,33.23
2022-08-03T13:45:02.478Z,33.33
2022-08-03T13:47:29.324Z,33.46
2022-08-03T13:50:01.878Z,33.47
2022-08-03T13:52:35.873Z,33.38
2022-08-03T13:55:06.694Z,33.29
2022-08-03T13:58:03.561Z,33.23
2022-08-03T14:00:27.480Z,33.17
2022-08-03T14:03:16.389Z,33.06
2022-08-03T14:05:44.022Z,32.95
2022-08-03T14:08:11.470Z,32.87
2022-08-03T14:10:40.277Z,32.78
2022-08-03T14:13:07.395Z,32.73
2022-08-03T14:15:37.606Z,32.70
2022-08-03T14:18:05.251Z,32.60
2022-08-03T14:20:38.496Z,32.59
2022-08-03T14:23:14.183Z,32.61
2022-08-03T14:25:51.911Z,32.70
2022-08-03T14:28:20.899Z,32.78
2022-08-03T14:30:48.542Z,32.80
2022-08-03T14:33:15.444Z,32.85
2022-08-03T14:35:42.158Z,32.87
2022-08-03T14:38:08.757Z,32.78
2022-08-03T14:40:35.541Z,32.70
2022-08-03T14:43:02.621Z,32.75
2022-08-03T14:45:29.429Z,32.84
2022-08-03T14:50:31.972Z,32.90
2022-08-03T14:50:48.284Z,32.96
2022-08-03T14:53:33.385Z,32.81
2022-08-03T14:55:59.950Z,32.77
2022-08-03T14:58:26.845Z,32.85
2022-08-03T15:00:54.846Z,32.96
2022-08-03T15:03:25.186Z,33.05
2022-08-03T15:05:53.624Z,33.01
2022-08-03T15:08:21.238Z,33.01
2022-08-03T15:10:49.148Z,33.07
2022-08-03T15:13:16.679Z,33.07
2022-08-03T15:15:43.258Z,33.11
2022-08-03T15:18:09.895Z,33.09
2022-08-03T15:20:45.580Z,32.99
2022-08-03T15:23:14.211Z,32.92
2022-08-03T15:26:28.460Z,32.95
2022-08-03T15:28:27.355Z,33.02
2022-08-03T15:30:54.220Z,33.04
2022-08-03T15:33:20.818Z,32.87
2022-08-03T15:35:47.729Z,32.87
2022-08-03T15:38:14.423Z,33.05
2022-08-03T15:40:41.218Z,33.11
2022-08-03T15:43:08.058Z,33.19
2022-08-03T15:45:36.769Z,33.22
2022-08-03T15:48:05.261Z,33.38
2022-08-03T15:50:32.096Z,33.52
2022-08-03T15:52:58.643Z,33.56
2022-08-03T15:55:25.409Z,33.54
2022-08-03T15:59:09.484Z,33.48
2022-08-03T16:00:38.992Z,33.39
2022-08-03T16:03:05.982Z,33.26
2022-08-03T16:05:32.547Z,33.17
2022-08-03T16:08:04.534Z,33.16
2022-08-03T16:10:32.567Z,33.07
2022-08-03T16:13:00.153Z,33.03
2022-08-03T16:15:27.296Z,33.02
2022-08-03T16:17:54.060Z,33.03
2022-08-03T16:20:31.668Z,33.05
2022-08-03T16:23:07.031Z,33.01
2022-08-03T16:25:41.654Z,33.01
2022-08-03T16:28:13.733Z,33.04
2022-08-03T16:30:42.210Z,33.17
2022-08-03T16:33:08.991Z,33.28
2022-08-03T16:35:35.563Z,33.24
2022-08-03T16:38:06.508Z,33.26
2022-08-03T16:40:36.099Z,33.17
2022-08-03T16:43:10.764Z,33.08
2022-08-03T16:45:46.766Z,33.01
2022-08-03T16:48:13.940Z,32.92
2022-08-03T16:50:40.673Z,32.89
2022-08-03T16:53:09.176Z,32.83
2022-08-03T16:55:48.523Z,32.78
2022-08-03T16:58:19.549Z,32.65
2022-08-03T17:01:21.149Z,32.52
2022-08-03T17:04:01.595Z,32.42
2022-08-03T17:06:34.517Z,32.38
2022-08-03T17:09:04.172Z,32.46
2022-08-03T17:11:36.013Z,32.57
2022-08-03T17:14:07.728Z,32.69
2022-08-03T17:16:36.261Z,32.85
2022-08-03T17:19:06.635Z,32.92
2022-08-03T17:21:39.112Z,32.96
2022-08-03T17:24:28.527Z,33.06
2022-08-03T17:26:56.029Z,33.09
2022-08-03T17:29:25.008Z,33.00
2022-08-03T17:31:52.872Z,32.81
2022-08-03T17:34:20.298Z,32.64
2022-08-03T17:37:04.890Z,32.54
2022-08-03T17:39:57.013Z,32.46
2022-08-03T17:42:29.518Z,32.46
2022-08-03T17:45:02.002Z,32.49
2022-08-03T17:47:42.213Z,32.47
2022-08-03T17:50:24.390Z,32.46
2022-08-03T17:52:54.780Z,32.46
2022-08-03T17:55:56.101Z,32.39
2022-08-03T17:58:14.935Z,32.25
2022-08-03T18:01:02.117Z,32.09
2022-08-03T18:03:58.763Z,31.89
2022-08-03T18:06:27.975Z,31.78
2022-08-03T18:08:56.578Z,31.69
2022-08-03T18:11:24.131Z,31.61
2022-08-03T18:14:16.332Z,31.59
2022-08-03T18:16:49.491Z,31.49
2022-08-03T18:19:17.001Z,31.51
2022-08-03T18:22:02.858Z,31.47
2022-08-03T18:24:31.097Z,31.44
2022-08-03T18:26:59.216Z,31.58
2022-08-03T18:29:26.295Z,31.62
2022-08-03T18:32:02.228Z,31.67
2022-08-03T18:34:32.820Z,31.68
2022-08-03T18:37:04.345Z,31.78
2022-08-03T18:39:49.380Z,31.84
2022-08-03T18:42:19.625Z,31.92
2022-08-03T18:44:53.803Z,31.97
2022-08-03T18:47:23.511Z,31.98
2022-08-03T18:50:01.607Z,32.01
2022-08-03T18:52:37.541Z,31.96
2022-08-03T18:55:33.077Z,31.76
2022-08-03T18:58:09.871Z,31.58
2022-08-03T19:02:00.914Z,31.41
2022-08-03T19:04:13.010Z,31.29
2022-08-03T19:06:43.859Z,31.22
2022-08-03T19:09:39.720Z,31.13
2022-08-03T19:12:28.219Z,31.10
2022-08-03T19:15:04.252Z,31.25
2022-08-03T19:17:35.991Z,31.31
2022-08-03T19:20:06.120Z,31.33
2022-08-03T19:22:33.554Z,31.39
2022-08-03T19:25:03.103Z,31.46
2022-08-03T19:27:30.699Z,31.52
2022-08-03T19:30:03.057Z,31.63
2022-08-03T19:32:32.913Z,31.66
2022-08-03T19:35:02.501Z,31.72
2022-08-03T19:37:38.713Z,31.81
2022-08-03T19:40:10.353Z,31.79
2022-08-03T19:42:40.830Z,31.74
2022-08-03T19:45:11.391Z,31.62
2022-08-03T19:47:46.728Z,31.48
2022-08-03T19:50:14.615Z,31.35
2022-08-03T19:52:43.783Z,31.26
2022-08-03T19:55:12.115Z,31.18
2022-08-03T19:57:41.191Z,31.10
2022-08-03T20:00:12.254Z,31.02
2022-08-03T20:02:41.317Z,30.96
2022-08-03T20:05:15.138Z,31.00
2022-08-03T20:07:47.817Z,31.01
2022-08-03T20:10:18.593Z,31.08
2022-08-03T20:12:46.163Z,31.15
2022-08-03T20:15:12.918Z,31.11
2022-08-03T20:17:54.970Z,31.01
2022-08-03T20:20:28.753Z,30.80
2022-08-03T20:22:58.158Z,30.72
2022-08-03T20:25:38.201Z,30.77
2022-08-03T20:28:14.005Z,30.88
2022-08-03T20:30:43.858Z,30.87
2022-08-03T20:33:11.030Z,30.87
2022-08-03T20:35:37.713Z,30.88
2022-08-03T20:38:09.319Z,30.85
2022-08-03T20:40:36.321Z,30.80
2022-08-03T20:43:04.781Z,30.78
2022-08-03T20:45:59.187Z,30.77
2022-08-03T20:48:18.569Z,30.87
2022-08-03T20:50:49.291Z,30.88
2022-08-03T20:53:41.375Z,30.93
2022-08-03T20:56:04.162Z,30.86
2022-08-03T20:58:30.999Z,30.88
2022-08-03T21:00:58.223Z,30.93
2022-08-03T21:03:24.719Z,31.00
2022-08-03T21:06:10.297Z,30.96
2022-08-03T21:09:06.689Z,30.89
2022-08-03T21:11:41.908Z,30.86
2022-08-03T21:14:16.449Z,30.87
2022-08-03T21:16:45.380Z,30.91
2022-08-03T21:19:12.244Z,30.94
2022-08-03T21:21:39.237Z,30.87
2022-08-03T21:24:06.640Z,30.71
2022-08-03T21:26:38.209Z,30.55
2022-08-03T21:29:04.790Z,30.48
2022-08-03T21:31:32.069Z,30.42
2022-08-03T21:34:04.221Z,30.32
2022-08-03T21:36:33.721Z,30.29
2022-08-03T21:39:01.960Z,30.23
2022-08-03T21:41:30.678Z,30.23
2022-08-03T21:43:57.766Z,30.19
2022-08-03T21:46:26.175Z,30.17
2022-08-03T21:50:07.140Z,30.18
2022-08-03T21:51:49.423Z,30.19
2022-08-03T21:54:16.957Z,30.13
2022-08-03T21:56:46.200Z,30.14
2022-08-03T21:59:18.122Z,30.14
2022-08-03T22:01:48.766Z,30.18
2022-08-03T22:04:53.273Z,30.22
2022-08-03T22:07:07.548Z,30.15
2022-08-03T22:09:35.312Z,30.11
2022-08-03T22:12:01.915Z,30.07
2022-08-03T22:14:29.324Z,30.02
2022-08-03T22:16:56.316Z,29.98
2022-08-03T22:19:22.956Z,29.96
2022-08-03T22:21:50.042Z,29.90
2022-08-03T22:24:19.702Z,29.78
2022-08-03T22:27:09.501Z,29.69
2022-08-03T22:29:36.948Z,29.63
2022-08-03T22:32:03.804Z,29.58
2022-08-03T22:34:30.378Z,29.57
2022-08-03T22:37:02.488Z,29.56
2022-08-03T22:39:29.773Z,29.52
2022-08-03T22:41:59.963Z,29.54
2022-08-03T22:44:27.487Z,29.51
2022-08-03T22:46:54.379Z,29.51
2022-08-03T22:49:21.633Z,29.47
2022-08-03T22:51:50.873Z,29.40
2022-08-03T22:54:17.540Z,29.40
2022-08-03T22:56:46.302Z,29.38
2022-08-03T22:59:38.859Z,29.33
2022-08-03T23:02:20.750Z,29.34
2022-08-03T23:04:56.417Z,29.31
2022-08-03T23:07:32.069Z,29.25
2022-08-03T23:10:01.040Z,29.26
2022-08-03T23:12:30.328Z,29.21
2022-08-03T23:15:02.213Z,29.16
2022-08-03T23:17:31.300Z,29.08
2022-08-03T23:20:03.513Z,29.00
2022-08-03T23:22:30.851Z,28.93
2022-08-03T23:24:58.857Z,28.83
2022-08-03T23:27:27.175Z,28.80
2022-08-03T23:29:53.929Z,28.76
2022-08-03T23:32:21.126Z,28.80
2022-08-03T23:35:07.862Z,28.88
2022-08-03T23:38:07.208Z,28.99
2022-08-03T23:40:24.800Z,29.07
2022-08-03T23:42:52.506Z,29.16
2022-08-03T23:45:20.032Z,29.14
2022-08-03T23:47:48.027Z,29.09
2022-08-03T23:50:15.132Z,28.99
2022-08-03T23:52:59.942Z,28.90
2022-08-03T23:55:47.681Z,28.84
2022-08-03T23:58:30.474Z,28.80
